sensor_id;sensor_type;location;lat;lon;timestamp;temperature;humidity
17381;DHT22;8808;52.478;13.378;2023-03-08T00:01:19;2.30;99.90
17381;DHT22;8808;52.478;13.378;2023-03-08T00:03:50;2.40;99.90
17381;DHT22;8808;52.478;13.378;2023-03-08T00:06:17;2.30;99.90
17381;DHT22;8808;52.478;13.378;2023-03-08T00:08:44;2.30;99.90
17381;DHT22;8808;52.478;13.378;2023-03-08T00:11:13;2.30;99.90
17381;DHT22;8808;52.478;13.378;2023-03-08T00:13:40;2.20;99.90
17381;DHT22;8808;52.478;13.378;2023-03-08T00:16:08;2.00;99.90
17381;DHT22;8808;52.478;13.378;2023-03-08T00:18:36;2.10;99.90
17381;DHT22;8808;52.478;13.378;2023-03-08T00:21:06;2.10;99.90
17381;DHT22;8808;52.478;13.378;2023-03-08T00:23:33;2.20;99.90
17381;DHT22;8808;52.478;13.378;2023-03-08T00:26:00;2.10;99.90
17381;DHT22;8808;52.478;13.378;2023-03-08T00:28:28;2.10;99.90
17381;DHT22;8808;52.478;13.378;2023-03-08T00:30:55;2.00;99.90
17381;DHT22;8808;52.478;13.378;2023-03-08T00:33:23;1.90;99.90
17381;DHT22;8808;52.478;13.378;2023-03-08T00:35:57;1.90;99.90
17381;DHT22;8808;52.478;13.378;2023-03-08T00:38:27;1.80;99.90
17381;DHT22;8808;52.478;13.378;2023-03-08T00:40:54;1.80;99.90
17381;DHT22;8808;52.478;13.378;2023-03-08T00:43:21;1.70;99.90
17381;DHT22;8808;52.478;13.378;2023-03-08T00:45:48;1.80;99.90
17381;DHT22;8808;52.478;13.378;2023-03-08T00:48:15;1.80;99.90
17381;DHT22;8808;52.478;13.378;2023-03-08T00:50:42;1.70;99.90
17381;DHT22;8808;52.478;13.378;2023-03-08T00:53:10;1.90;99.90
17381;DHT22;8808;52.478;13.378;2023-03-08T00:55:38;1.90;99.90
17381;DHT22;8808;52.478;13.378;2023-03-08T00:58:05;1.80;99.90
17381;DHT22;8808;52.478;13.378;2023-03-08T01:00:32;1.70;99.90
17381;DHT22;8808;52.478;13.378;2023-03-08T01:02:59;1.70;99.90
17381;DHT22;8808;52.478;13.378;2023-03-08T01:05:26;1.70;99.90
17381;DHT22;8808;52.478;13.378;2023-03-08T01:07:53;1.70;99.90
17381;DHT22;8808;52.478;13.378;2023-03-08T01:10:20;1.60;99.90
17381;DHT22;8808;52.478;13.378;2023-03-08T01:12:48;1.60;99.90
17381;DHT22;8808;52.478;13.378;2023-03-08T01:15:15;1.60;99.90
17381;DHT22;8808;52.478;13.378;2023-03-08T01:17:42;1.60;99.90
17381;DHT22;8808;52.478;13.378;2023-03-08T01:20:10;1.70;99.90
17381;DHT22;8808;52.478;13.378;2023-03-08T01:22:37;1.70;99.90
17381;DHT22;8808;52.478;13.378;2023-03-08T01:25:04;1.70;99.90
17381;DHT22;8808;52.478;13.378;2023-03-08T01:27:31;1.60;99.90
17381;DHT22;8808;52.478;13.378;2023-03-08T01:30:00;1.60;99.90
17381;DHT22;8808;52.478;13.378;2023-03-08T01:32:27;1.60;99.90
17381;DHT22;8808;52.478;13.378;2023-03-08T01:34:54;1.60;99.90
17381;DHT22;8808;52.478;13.378;2023-03-08T01:37:21;1.50;99.90
17381;DHT22;8808;52.478;13.378;2023-03-08T01:39:48;1.60;99.90
17381;DHT22;8808;52.478;13.378;2023-03-08T01:42:15;1.60;99.90
17381;DHT22;8808;52.478;13.378;2023-03-08T01:44:49;1.50;99.90
17381;DHT22;8808;52.478;13.378;2023-03-08T01:47:19;1.60;99.90
17381;DHT22;8808;52.478;13.378;2023-03-08T01:49:46;1.50;99.90
17381;DHT22;8808;52.478;13.378;2023-03-08T01:52:16;1.50;99.90
17381;DHT22;8808;52.478;13.378;2023-03-08T01:54:46;1.30;99.90
17381;DHT22;8808;52.478;13.378;2023-03-08T01:57:16;1.50;99.90
17381;DHT22;8808;52.478;13.378;2023-03-08T01:59:45;1.50;99.90
17381;DHT22;8808;52.478;13.378;2023-03-08T02:04:43;1.50;99.90
17381;DHT22;8808;52.478;13.378;2023-03-08T02:07:10;1.50;99.90
17381;DHT22;8808;52.478;13.378;2023-03-08T02:09:37;1.50;99.90
17381;DHT22;8808;52.478;13.378;2023-03-08T02:12:09;1.50;99.90
17381;DHT22;8808;52.478;13.378;2023-03-08T02:14:37;1.50;99.90
17381;DHT22;8808;52.478;13.378;2023-03-08T02:17:05;1.50;99.90
17381;DHT22;8808;52.478;13.378;2023-03-08T02:19:38;1.50;99.90
17381;DHT22;8808;52.478;13.378;2023-03-08T02:22:10;1.50;99.90
17381;DHT22;8808;52.478;13.378;2023-03-08T02:24:39;1.50;99.90
17381;DHT22;8808;52.478;13.378;2023-03-08T02:27:08;1.40;99.90
17381;DHT22;8808;52.478;13.378;2023-03-08T02:29:37;1.50;99.90
17381;DHT22;8808;52.478;13.378;2023-03-08T02:32:05;1.40;99.90
17381;DHT22;8808;52.478;13.378;2023-03-08T02:34:32;1.40;99.90
17381;DHT22;8808;52.478;13.378;2023-03-08T02:37:00;1.50;99.90
17381;DHT22;8808;52.478;13.378;2023-03-08T02:39:27;1.50;99.90
17381;DHT22;8808;52.478;13.378;2023-03-08T02:41:55;1.40;99.90
17381;DHT22;8808;52.478;13.378;2023-03-08T02:44:22;1.40;99.90
17381;DHT22;8808;52.478;13.378;2023-03-08T02:46:49;1.40;99.90
17381;DHT22;8808;52.478;13.378;2023-03-08T02:49:16;1.30;99.90
17381;DHT22;8808;52.478;13.378;2023-03-08T02:51:43;1.30;99.90
17381;DHT22;8808;52.478;13.378;2023-03-08T02:54:10;1.30;99.90
17381;DHT22;8808;52.478;13.378;2023-03-08T02:56:37;1.40;99.90
17381;DHT22;8808;52.478;13.378;2023-03-08T02:59:06;1.40;99.90
17381;DHT22;8808;52.478;13.378;2023-03-08T03:01:32;1.40;99.90
17381;DHT22;8808;52.478;13.378;2023-03-08T03:03:59;1.40;99.90
17381;DHT22;8808;52.478;13.378;2023-03-08T03:06:26;1.30;99.90
17381;DHT22;8808;52.478;13.378;2023-03-08T03:08:53;1.30;99.90
17381;DHT22;8808;52.478;13.378;2023-03-08T03:11:21;1.30;99.90
17381;DHT22;8808;52.478;13.378;2023-03-08T03:13:54;1.30;99.90
17381;DHT22;8808;52.478;13.378;2023-03-08T03:16:23;1.30;99.90
17381;DHT22;8808;52.478;13.378;2023-03-08T03:18:51;1.30;99.90
17381;DHT22;8808;52.478;13.378;2023-03-08T03:21:18;1.30;99.90
17381;DHT22;8808;52.478;13.378;2023-03-08T03:23:45;1.40;99.90
17381;DHT22;8808;52.478;13.378;2023-03-08T03:26:14;1.40;99.90
17381;DHT22;8808;52.478;13.378;2023-03-08T03:28:41;1.40;99.90
17381;DHT22;8808;52.478;13.378;2023-03-08T03:31:10;1.40;99.90
17381;DHT22;8808;52.478;13.378;2023-03-08T03:33:38;1.40;99.90
17381;DHT22;8808;52.478;13.378;2023-03-08T03:36:06;1.40;99.90
17381;DHT22;8808;52.478;13.378;2023-03-08T03:38:34;1.30;99.90
17381;DHT22;8808;52.478;13.378;2023-03-08T03:41:02;1.40;99.90
17381;DHT22;8808;52.478;13.378;2023-03-08T03:43:29;1.40;99.90
17381;DHT22;8808;52.478;13.378;2023-03-08T03:45:56;1.50;99.90
17381;DHT22;8808;52.478;13.378;2023-03-08T03:48:24;1.50;99.90
17381;DHT22;8808;52.478;13.378;2023-03-08T03:50:57;1.40;99.90
17381;DHT22;8808;52.478;13.378;2023-03-08T03:53:25;1.50;99.90
17381;DHT22;8808;52.478;13.378;2023-03-08T03:55:53;1.50;99.90
17381;DHT22;8808;52.478;13.378;2023-03-08T03:58:20;1.50;99.90
17381;DHT22;8808;52.478;13.378;2023-03-08T04:00:47;1.50;99.90
17381;DHT22;8808;52.478;13.378;2023-03-08T04:03:14;1.50;99.90
17381;DHT22;8808;52.478;13.378;2023-03-08T04:05:41;1.50;99.90
17381;DHT22;8808;52.478;13.378;2023-03-08T04:08:09;1.50;99.90
17381;DHT22;8808;52.478;13.378;2023-03-08T04:10:36;1.50;99.90
17381;DHT22;8808;52.478;13.378;2023-03-08T04:13:03;1.60;99.90
17381;DHT22;8808;52.478;13.378;2023-03-08T04:15:30;1.50;99.90
17381;DHT22;8808;52.478;13.378;2023-03-08T04:17:57;1.50;99.90
17381;DHT22;8808;52.478;13.378;2023-03-08T04:20:24;1.50;99.90
17381;DHT22;8808;52.478;13.378;2023-03-08T04:22:52;1.60;99.90
17381;DHT22;8808;52.478;13.378;2023-03-08T04:25:20;1.50;99.90
17381;DHT22;8808;52.478;13.378;2023-03-08T04:27:47;1.50;99.90
17381;DHT22;8808;52.478;13.378;2023-03-08T04:30:14;1.40;99.90
17381;DHT22;8808;52.478;13.378;2023-03-08T04:32:41;1.50;99.90
17381;DHT22;8808;52.478;13.378;2023-03-08T04:35:08;1.40;99.90
17381;DHT22;8808;52.478;13.378;2023-03-08T04:37:35;1.40;99.90
17381;DHT22;8808;52.478;13.378;2023-03-08T04:40:04;1.40;99.90
17381;DHT22;8808;52.478;13.378;2023-03-08T04:42:35;1.40;99.90
17381;DHT22;8808;52.478;13.378;2023-03-08T04:45:02;1.30;99.90
17381;DHT22;8808;52.478;13.378;2023-03-08T04:47:29;1.20;99.90
17381;DHT22;8808;52.478;13.378;2023-03-08T04:49:56;1.10;99.90
17381;DHT22;8808;52.478;13.378;2023-03-08T04:52:23;1.10;99.90
17381;DHT22;8808;52.478;13.378;2023-03-08T04:54:50;0.90;99.90
17381;DHT22;8808;52.478;13.378;2023-03-08T04:57:17;0.90;99.90
17381;DHT22;8808;52.478;13.378;2023-03-08T04:59:45;0.90;99.90
17381;DHT22;8808;52.478;13.378;2023-03-08T05:02:12;0.90;99.90
17381;DHT22;8808;52.478;13.378;2023-03-08T05:04:39;0.80;99.90
17381;DHT22;8808;52.478;13.378;2023-03-08T05:07:06;0.90;99.90
17381;DHT22;8808;52.478;13.378;2023-03-08T05:09:33;0.80;99.90
17381;DHT22;8808;52.478;13.378;2023-03-08T05:12:00;0.90;99.90
17381;DHT22;8808;52.478;13.378;2023-03-08T05:14:27;0.90;99.90
17381;DHT22;8808;52.478;13.378;2023-03-08T05:16:56;0.80;99.90
17381;DHT22;8808;52.478;13.378;2023-03-08T05:19:23;0.70;99.90
17381;DHT22;8808;52.478;13.378;2023-03-08T05:21:50;0.70;99.90
17381;DHT22;8808;52.478;13.378;2023-03-08T05:24:17;0.60;99.90
17381;DHT22;8808;52.478;13.378;2023-03-08T05:26:44;0.60;99.90
17381;DHT22;8808;52.478;13.378;2023-03-08T05:29:11;0.60;99.90
17381;DHT22;8808;52.478;13.378;2023-03-08T05:31:38;0.70;99.90
17381;DHT22;8808;52.478;13.378;2023-03-08T05:34:09;0.70;99.90
17381;DHT22;8808;52.478;13.378;2023-03-08T05:36:36;0.70;99.90
17381;DHT22;8808;52.478;13.378;2023-03-08T05:39:03;0.60;99.90
17381;DHT22;8808;52.478;13.378;2023-03-08T05:41:31;0.60;99.90
17381;DHT22;8808;52.478;13.378;2023-03-08T05:43:59;0.50;99.90
17381;DHT22;8808;52.478;13.378;2023-03-08T05:46:26;0.60;99.90
17381;DHT22;8808;52.478;13.378;2023-03-08T05:48:53;0.50;99.90
17381;DHT22;8808;52.478;13.378;2023-03-08T05:51:22;0.50;99.90
17381;DHT22;8808;52.478;13.378;2023-03-08T05:53:49;0.40;99.90
17381;DHT22;8808;52.478;13.378;2023-03-08T05:56:17;0.40;99.90
17381;DHT22;8808;52.478;13.378;2023-03-08T05:58:45;0.50;99.90
17381;DHT22;8808;52.478;13.378;2023-03-08T06:01:14;0.50;99.90
17381;DHT22;8808;52.478;13.378;2023-03-08T06:03:42;0.50;99.90
17381;DHT22;8808;52.478;13.378;2023-03-08T06:06:09;0.60;99.90
17381;DHT22;8808;52.478;13.378;2023-03-08T06:08:37;0.50;99.90
17381;DHT22;8808;52.478;13.378;2023-03-08T06:11:04;0.50;99.90
17381;DHT22;8808;52.478;13.378;2023-03-08T06:13:31;0.50;99.90
17381;DHT22;8808;52.478;13.378;2023-03-08T06:15:59;0.60;99.90
17381;DHT22;8808;52.478;13.378;2023-03-08T06:18:27;0.40;99.90
17381;DHT22;8808;52.478;13.378;2023-03-08T06:20:56;0.50;99.90
17381;DHT22;8808;52.478;13.378;2023-03-08T06:23:23;0.50;99.90
17381;DHT22;8808;52.478;13.378;2023-03-08T06:25:52;0.50;99.90
17381;DHT22;8808;52.478;13.378;2023-03-08T06:28:19;0.60;99.90
17381;DHT22;8808;52.478;13.378;2023-03-08T06:30:46;0.70;99.90
17381;DHT22;8808;52.478;13.378;2023-03-08T06:33:15;0.70;99.90
17381;DHT22;8808;52.478;13.378;2023-03-08T06:35:42;0.80;99.90
17381;DHT22;8808;52.478;13.378;2023-03-08T06:38:09;0.80;99.90
17381;DHT22;8808;52.478;13.378;2023-03-08T06:40:36;1.20;99.90
17381;DHT22;8808;52.478;13.378;2023-03-08T06:43:04;1.40;99.90
17381;DHT22;8808;52.478;13.378;2023-03-08T06:45:31;1.80;99.90
17381;DHT22;8808;52.478;13.378;2023-03-08T06:47:59;1.60;99.90
17381;DHT22;8808;52.478;13.378;2023-03-08T06:50:26;1.50;99.90
17381;DHT22;8808;52.478;13.378;2023-03-08T06:52:54;1.40;99.90
17381;DHT22;8808;52.478;13.378;2023-03-08T06:55:21;1.30;99.90
17381;DHT22;8808;52.478;13.378;2023-03-08T06:57:48;1.40;99.90
17381;DHT22;8808;52.478;13.378;2023-03-08T07:00:17;1.30;99.90
17381;DHT22;8808;52.478;13.378;2023-03-08T07:02:44;1.60;99.90
17381;DHT22;8808;52.478;13.378;2023-03-08T07:05:13;1.40;99.90
17381;DHT22;8808;52.478;13.378;2023-03-08T07:07:41;1.50;99.90
17381;DHT22;8808;52.478;13.378;2023-03-08T07:10:10;1.50;99.90
17381;DHT22;8808;52.478;13.378;2023-03-08T07:12:40;1.50;99.90
17381;DHT22;8808;52.478;13.378;2023-03-08T07:15:09;1.60;99.90
17381;DHT22;8808;52.478;13.378;2023-03-08T07:17:41;1.60;99.90
17381;DHT22;8808;52.478;13.378;2023-03-08T07:20:10;1.70;99.90
17381;DHT22;8808;52.478;13.378;2023-03-08T07:22:38;1.70;99.90
17381;DHT22;8808;52.478;13.378;2023-03-08T07:25:07;1.90;99.90
17381;DHT22;8808;52.478;13.378;2023-03-08T07:27:34;2.10;99.90
17381;DHT22;8808;52.478;13.378;2023-03-08T07:30:01;2.00;99.90
17381;DHT22;8808;52.478;13.378;2023-03-08T07:32:28;2.00;99.90
17381;DHT22;8808;52.478;13.378;2023-03-08T07:34:56;2.00;99.90
17381;DHT22;8808;52.478;13.378;2023-03-08T07:37:23;2.10;99.90
17381;DHT22;8808;52.478;13.378;2023-03-08T07:39:51;2.10;99.90
17381;DHT22;8808;52.478;13.378;2023-03-08T07:42:17;2.20;99.90
17381;DHT22;8808;52.478;13.378;2023-03-08T07:44:44;2.30;99.90
17381;DHT22;8808;52.478;13.378;2023-03-08T07:47:11;2.40;99.90
17381;DHT22;8808;52.478;13.378;2023-03-08T07:49:38;2.50;99.90
17381;DHT22;8808;52.478;13.378;2023-03-08T07:52:07;2.60;99.90
17381;DHT22;8808;52.478;13.378;2023-03-08T07:54:34;2.60;99.90
17381;DHT22;8808;52.478;13.378;2023-03-08T07:57:01;2.70;99.90
17381;DHT22;8808;52.478;13.378;2023-03-08T07:59:28;2.80;99.90
17381;DHT22;8808;52.478;13.378;2023-03-08T08:01:55;2.80;99.90
17381;DHT22;8808;52.478;13.378;2023-03-08T08:04:22;2.90;99.90
17381;DHT22;8808;52.478;13.378;2023-03-08T08:06:49;2.80;99.90
17381;DHT22;8808;52.478;13.378;2023-03-08T08:09:17;2.90;99.90
17381;DHT22;8808;52.478;13.378;2023-03-08T08:11:44;3.00;99.90
17381;DHT22;8808;52.478;13.378;2023-03-08T08:14:11;3.20;99.90
17381;DHT22;8808;52.478;13.378;2023-03-08T08:16:39;3.20;99.90
17381;DHT22;8808;52.478;13.378;2023-03-08T08:19:06;3.20;99.90
17381;DHT22;8808;52.478;13.378;2023-03-08T08:21:33;3.30;99.90
17381;DHT22;8808;52.478;13.378;2023-03-08T08:24:00;3.40;99.90
17381;DHT22;8808;52.478;13.378;2023-03-08T08:26:28;3.40;99.90
17381;DHT22;8808;52.478;13.378;2023-03-08T08:28:55;3.50;99.90
17381;DHT22;8808;52.478;13.378;2023-03-08T08:31:24;3.50;99.90
17381;DHT22;8808;52.478;13.378;2023-03-08T08:33:55;3.50;99.90
17381;DHT22;8808;52.478;13.378;2023-03-08T08:36:22;3.60;99.90
17381;DHT22;8808;52.478;13.378;2023-03-08T08:38:50;3.60;99.90
17381;DHT22;8808;52.478;13.378;2023-03-08T08:41:18;3.40;99.90
17381;DHT22;8808;52.478;13.378;2023-03-08T08:43:47;3.40;99.90
17381;DHT22;8808;52.478;13.378;2023-03-08T08:46:15;3.50;99.90
17381;DHT22;8808;52.478;13.378;2023-03-08T08:48:42;3.50;99.90
17381;DHT22;8808;52.478;13.378;2023-03-08T08:51:12;3.50;99.90
17381;DHT22;8808;52.478;13.378;2023-03-08T08:53:39;3.50;99.90
17381;DHT22;8808;52.478;13.378;2023-03-08T08:56:11;3.60;99.90
17381;DHT22;8808;52.478;13.378;2023-03-08T08:58:38;3.70;99.90
17381;DHT22;8808;52.478;13.378;2023-03-08T09:01:13;4.00;99.90
17381;DHT22;8808;52.478;13.378;2023-03-08T09:03:41;3.60;99.90
17381;DHT22;8808;52.478;13.378;2023-03-08T09:06:08;4.00;99.90
17381;DHT22;8808;52.478;13.378;2023-03-08T09:08:35;4.10;99.90
17381;DHT22;8808;52.478;13.378;2023-03-08T09:11:03;4.10;99.90
17381;DHT22;8808;52.478;13.378;2023-03-08T09:13:30;3.90;99.90
17381;DHT22;8808;52.478;13.378;2023-03-08T09:15:57;3.90;99.90
17381;DHT22;8808;52.478;13.378;2023-03-08T09:18:26;3.90;99.90
17381;DHT22;8808;52.478;13.378;2023-03-08T09:20:53;3.80;99.90
17381;DHT22;8808;52.478;13.378;2023-03-08T09:23:20;3.90;99.90
17381;DHT22;8808;52.478;13.378;2023-03-08T09:25:54;3.90;99.90
17381;DHT22;8808;52.478;13.378;2023-03-08T09:28:22;4.00;99.90
17381;DHT22;8808;52.478;13.378;2023-03-08T09:30:49;3.80;99.90
17381;DHT22;8808;52.478;13.378;2023-03-08T09:33:16;4.50;99.90
17381;DHT22;8808;52.478;13.378;2023-03-08T09:35:54;4.30;99.90
17381;DHT22;8808;52.478;13.378;2023-03-08T09:38:21;4.10;99.90
17381;DHT22;8808;52.478;13.378;2023-03-08T09:40:56;4.00;99.90
17381;DHT22;8808;52.478;13.378;2023-03-08T09:43:30;4.00;99.90
17381;DHT22;8808;52.478;13.378;2023-03-08T09:46:03;4.00;99.90
17381;DHT22;8808;52.478;13.378;2023-03-08T09:48:31;4.20;99.90
17381;DHT22;8808;52.478;13.378;2023-03-08T09:51:03;4.30;99.90
17381;DHT22;8808;52.478;13.378;2023-03-08T09:53:36;4.10;99.90
17381;DHT22;8808;52.478;13.378;2023-03-08T09:56:13;4.20;99.90
17381;DHT22;8808;52.478;13.378;2023-03-08T09:58:45;4.20;99.90
17381;DHT22;8808;52.478;13.378;2023-03-08T10:01:23;4.20;99.90
17381;DHT22;8808;52.478;13.378;2023-03-08T10:06:53;4.30;99.90
17381;DHT22;8808;52.478;13.378;2023-03-08T10:09:28;4.40;99.90
17381;DHT22;8808;52.478;13.378;2023-03-08T10:12:01;4.50;99.90
17381;DHT22;8808;52.478;13.378;2023-03-08T10:14:31;4.50;99.90
17381;DHT22;8808;52.478;13.378;2023-03-08T10:17:02;4.50;99.90
17381;DHT22;8808;52.478;13.378;2023-03-08T10:19:35;4.60;99.90
17381;DHT22;8808;52.478;13.378;2023-03-08T10:22:12;4.90;99.90
17381;DHT22;8808;52.478;13.378;2023-03-08T10:24:45;5.10;99.90
17381;DHT22;8808;52.478;13.378;2023-03-08T10:27:18;5.00;99.90
17381;DHT22;8808;52.478;13.378;2023-03-08T10:29:50;4.80;99.90
17381;DHT22;8808;52.478;13.378;2023-03-08T10:32:17;4.60;99.90
17381;DHT22;8808;52.478;13.378;2023-03-08T10:34:44;4.50;99.90
17381;DHT22;8808;52.478;13.378;2023-03-08T10:37:13;4.70;99.90
17381;DHT22;8808;52.478;13.378;2023-03-08T10:39:48;4.70;99.90
17381;DHT22;8808;52.478;13.378;2023-03-08T10:42:20;4.70;99.90
17381;DHT22;8808;52.478;13.378;2023-03-08T10:44:54;4.60;99.90
17381;DHT22;8808;52.478;13.378;2023-03-08T10:47:23;4.70;99.90
17381;DHT22;8808;52.478;13.378;2023-03-08T10:50:03;4.90;99.90
17381;DHT22;8808;52.478;13.378;2023-03-08T10:52:32;4.80;99.90
17381;DHT22;8808;52.478;13.378;2023-03-08T10:55:00;5.00;99.90
17381;DHT22;8808;52.478;13.378;2023-03-08T10:57:28;5.30;99.90
17381;DHT22;8808;52.478;13.378;2023-03-08T10:59:58;5.30;99.90
17381;DHT22;8808;52.478;13.378;2023-03-08T11:02:26;4.90;99.90
17381;DHT22;8808;52.478;13.378;2023-03-08T11:04:54;5.00;99.90
17381;DHT22;8808;52.478;13.378;2023-03-08T11:07:24;5.20;99.90
17381;DHT22;8808;52.478;13.378;2023-03-08T11:10:05;5.20;99.90
17381;DHT22;8808;52.478;13.378;2023-03-08T11:12:40;5.20;99.90
17381;DHT22;8808;52.478;13.378;2023-03-08T11:15:12;5.20;99.90
17381;DHT22;8808;52.478;13.378;2023-03-08T11:17:43;5.20;99.90
17381;DHT22;8808;52.478;13.378;2023-03-08T11:20:17;5.10;99.90
17381;DHT22;8808;52.478;13.378;2023-03-08T11:23:00;5.10;99.90
17381;DHT22;8808;52.478;13.378;2023-03-08T11:25:37;5.30;99.90
17381;DHT22;8808;52.478;13.378;2023-03-08T11:28:32;5.20;99.90
17381;DHT22;8808;52.478;13.378;2023-03-08T11:31:13;5.10;99.90
17381;DHT22;8808;52.478;13.378;2023-03-08T11:34:02;5.20;99.90
17381;DHT22;8808;52.478;13.378;2023-03-08T11:36:37;5.10;99.90
17381;DHT22;8808;52.478;13.378;2023-03-08T11:39:12;5.20;99.90
17381;DHT22;8808;52.478;13.378;2023-03-08T11:41:49;5.20;99.90
17381;DHT22;8808;52.478;13.378;2023-03-08T11:44:54;5.10;99.90
17381;DHT22;8808;52.478;13.378;2023-03-08T11:47:55;5.00;99.90
17381;DHT22;8808;52.478;13.378;2023-03-08T11:50:28;4.80;99.90
17381;DHT22;8808;52.478;13.378;2023-03-08T11:53:04;4.80;99.90
17381;DHT22;8808;52.478;13.378;2023-03-08T11:55:59;4.80;99.90
17381;DHT22;8808;52.478;13.378;2023-03-08T11:58:36;5.00;99.90
17381;DHT22;8808;52.478;13.378;2023-03-08T12:01:10;5.10;99.90
17381;DHT22;8808;52.478;13.378;2023-03-08T12:03:42;5.00;99.90
17381;DHT22;8808;52.478;13.378;2023-03-08T12:06:12;4.90;99.90
17381;DHT22;8808;52.478;13.378;2023-03-08T12:08:44;4.80;99.90
17381;DHT22;8808;52.478;13.378;2023-03-08T12:11:18;4.90;99.90
17381;DHT22;8808;52.478;13.378;2023-03-08T12:13:51;4.80;99.90
17381;DHT22;8808;52.478;13.378;2023-03-08T12:16:24;4.80;99.90
17381;DHT22;8808;52.478;13.378;2023-03-08T12:18:54;4.90;99.90
17381;DHT22;8808;52.478;13.378;2023-03-08T12:21:31;5.10;99.90
17381;DHT22;8808;52.478;13.378;2023-03-08T12:24:13;5.10;99.90
17381;DHT22;8808;52.478;13.378;2023-03-08T12:26:43;5.10;99.90
17381;DHT22;8808;52.478;13.378;2023-03-08T12:29:18;5.10;99.90
17381;DHT22;8808;52.478;13.378;2023-03-08T12:31:48;5.00;99.90
17381;DHT22;8808;52.478;13.378;2023-03-08T12:34:26;5.10;99.90
17381;DHT22;8808;52.478;13.378;2023-03-08T12:36:53;5.00;99.90
17381;DHT22;8808;52.478;13.378;2023-03-08T12:39:26;5.10;99.90
17381;DHT22;8808;52.478;13.378;2023-03-08T12:42:12;5.00;99.90
17381;DHT22;8808;52.478;13.378;2023-03-08T12:44:41;4.90;99.90
17381;DHT22;8808;52.478;13.378;2023-03-08T12:47:20;5.00;99.90
17381;DHT22;8808;52.478;13.378;2023-03-08T12:49:50;5.00;99.90
17381;DHT22;8808;52.478;13.378;2023-03-08T12:52:25;5.00;99.90
17381;DHT22;8808;52.478;13.378;2023-03-08T12:54:56;4.90;99.90
17381;DHT22;8808;52.478;13.378;2023-03-08T12:57:27;4.80;99.90
17381;DHT22;8808;52.478;13.378;2023-03-08T12:59:58;4.90;99.90
17381;DHT22;8808;52.478;13.378;2023-03-08T13:02:27;4.80;99.90
17381;DHT22;8808;52.478;13.378;2023-03-08T13:05:18;5.00;99.90
17381;DHT22;8808;52.478;13.378;2023-03-08T13:08:05;5.00;99.90
17381;DHT22;8808;52.478;13.378;2023-03-08T13:10:35;5.00;99.90
17381;DHT22;8808;52.478;13.378;2023-03-08T13:13:18;5.00;99.90
17381;DHT22;8808;52.478;13.378;2023-03-08T13:15:47;4.90;99.90
17381;DHT22;8808;52.478;13.378;2023-03-08T13:18:17;5.00;99.90
17381;DHT22;8808;52.478;13.378;2023-03-08T13:21:06;5.00;99.90
17381;DHT22;8808;52.478;13.378;2023-03-08T13:23:42;4.90;99.90
17381;DHT22;8808;52.478;13.378;2023-03-08T13:26:36;4.80;99.90
17381;DHT22;8808;52.478;13.378;2023-03-08T13:29:12;4.90;99.90
17381;DHT22;8808;52.478;13.378;2023-03-08T13:31:42;4.80;99.90
17381;DHT22;8808;52.478;13.378;2023-03-08T13:34:26;4.90;99.90
17381;DHT22;8808;52.478;13.378;2023-03-08T13:36:53;4.80;99.90
17381;DHT22;8808;52.478;13.378;2023-03-08T13:39:22;4.80;99.90
17381;DHT22;8808;52.478;13.378;2023-03-08T13:41:49;4.80;99.90
17381;DHT22;8808;52.478;13.378;2023-03-08T13:44:20;4.70;99.90
17381;DHT22;8808;52.478;13.378;2023-03-08T13:46:51;4.50;99.90
17381;DHT22;8808;52.478;13.378;2023-03-08T13:49:20;4.50;99.90
17381;DHT22;8808;52.478;13.378;2023-03-08T13:51:49;4.30;99.90
17381;DHT22;8808;52.478;13.378;2023-03-08T13:54:22;4.30;99.90
17381;DHT22;8808;52.478;13.378;2023-03-08T13:56:54;4.30;99.90
17381;DHT22;8808;52.478;13.378;2023-03-08T13:59:21;4.00;99.90
17381;DHT22;8808;52.478;13.378;2023-03-08T14:01:51;4.10;99.90
17381;DHT22;8808;52.478;13.378;2023-03-08T14:04:20;4.00;99.90
17381;DHT22;8808;52.478;13.378;2023-03-08T14:06:49;4.00;99.90
17381;DHT22;8808;52.478;13.378;2023-03-08T14:09:16;3.70;99.90
17381;DHT22;8808;52.478;13.378;2023-03-08T14:11:44;3.60;99.90
17381;DHT22;8808;52.478;13.378;2023-03-08T14:14:16;3.50;99.90
17381;DHT22;8808;52.478;13.378;2023-03-08T14:16:45;3.60;99.90
17381;DHT22;8808;52.478;13.378;2023-03-08T14:19:21;3.60;99.90
17381;DHT22;8808;52.478;13.378;2023-03-08T14:21:50;3.60;99.90
17381;DHT22;8808;52.478;13.378;2023-03-08T14:24:20;3.50;99.90
17381;DHT22;8808;52.478;13.378;2023-03-08T14:26:53;3.50;99.90
17381;DHT22;8808;52.478;13.378;2023-03-08T14:29:21;3.20;99.90
17381;DHT22;8808;52.478;13.378;2023-03-08T14:31:59;3.00;99.90
17381;DHT22;8808;52.478;13.378;2023-03-08T14:34:30;2.90;99.90
17381;DHT22;8808;52.478;13.378;2023-03-08T14:37:01;3.00;99.90
17381;DHT22;8808;52.478;13.378;2023-03-08T14:39:30;2.90;99.90
17381;DHT22;8808;52.478;13.378;2023-03-08T14:42:08;2.90;99.90
17381;DHT22;8808;52.478;13.378;2023-03-08T14:44:36;2.80;99.90
17381;DHT22;8808;52.478;13.378;2023-03-08T14:47:16;2.70;99.90
17381;DHT22;8808;52.478;13.378;2023-03-08T14:49:55;2.70;99.90
17381;DHT22;8808;52.478;13.378;2023-03-08T14:52:22;2.60;99.90
17381;DHT22;8808;52.478;13.378;2023-03-08T14:54:52;2.60;99.90
17381;DHT22;8808;52.478;13.378;2023-03-08T14:57:22;2.50;99.90
17381;DHT22;8808;52.478;13.378;2023-03-08T14:59:50;2.60;99.90
17381;DHT22;8808;52.478;13.378;2023-03-08T15:02:18;2.70;99.90
17381;DHT22;8808;52.478;13.378;2023-03-08T15:04:45;2.60;99.90
17381;DHT22;8808;52.478;13.378;2023-03-08T15:07:17;2.70;99.90
17381;DHT22;8808;52.478;13.378;2023-03-08T15:09:45;2.80;99.90
17381;DHT22;8808;52.478;13.378;2023-03-08T15:12:12;2.80;99.90
17381;DHT22;8808;52.478;13.378;2023-03-08T15:14:39;2.80;99.90
17381;DHT22;8808;52.478;13.378;2023-03-08T15:17:06;2.70;99.90
17381;DHT22;8808;52.478;13.378;2023-03-08T15:19:33;2.80;99.90
17381;DHT22;8808;52.478;13.378;2023-03-08T15:22:00;2.60;99.90
17381;DHT22;8808;52.478;13.378;2023-03-08T15:24:30;2.50;99.90
17381;DHT22;8808;52.478;13.378;2023-03-08T15:26:57;2.60;99.90
17381;DHT22;8808;52.478;13.378;2023-03-08T15:29:26;2.50;99.90
17381;DHT22;8808;52.478;13.378;2023-03-08T15:31:54;2.40;99.90
17381;DHT22;8808;52.478;13.378;2023-03-08T15:34:21;2.50;99.90
17381;DHT22;8808;52.478;13.378;2023-03-08T15:36:49;2.50;99.90
17381;DHT22;8808;52.478;13.378;2023-03-08T15:39:17;2.70;99.90
17381;DHT22;8808;52.478;13.378;2023-03-08T15:41:46;2.60;99.90
17381;DHT22;8808;52.478;13.378;2023-03-08T15:44:13;2.60;99.90
17381;DHT22;8808;52.478;13.378;2023-03-08T15:46:40;2.60;99.90
17381;DHT22;8808;52.478;13.378;2023-03-08T15:49:08;2.50;99.90
17381;DHT22;8808;52.478;13.378;2023-03-08T15:51:36;2.50;99.90
17381;DHT22;8808;52.478;13.378;2023-03-08T15:54:04;2.50;99.90
17381;DHT22;8808;52.478;13.378;2023-03-08T15:56:31;2.40;99.90
17381;DHT22;8808;52.478;13.378;2023-03-08T15:59:00;2.30;99.90
17381;DHT22;8808;52.478;13.378;2023-03-08T16:01:27;2.50;99.90
17381;DHT22;8808;52.478;13.378;2023-03-08T16:03:55;2.50;99.90
17381;DHT22;8808;52.478;13.378;2023-03-08T16:06:23;2.60;99.90